createdAt,value
2023-09-03T00:01:12.935Z,100512.27
2023-09-03T00:03:49.419Z,100512.67
2023-09-03T00:06:17.507Z,100515.30
2023-09-03T00:08:47.120Z,100513.02
2023-09-03T00:11:17.715Z,100511.50
2023-09-03T00:13:45.645Z,100509.63
2023-09-03T00:16:13.992Z,100507.66
2023-09-03T00:18:41.969Z,100505.52
2023-09-03T00:21:10.130Z,100505.78
2023-09-03T00:23:38.055Z,100508.10
2023-09-03T00:26:06.160Z,100506.09
2023-09-03T00:28:34.101Z,100506.52
2023-09-03T00:31:03.078Z,100504.98
2023-09-03T00:33:32.611Z,100507.67
2023-09-03T00:36:02.444Z,100506.69
2023-09-03T00:38:30.469Z,100508.66
2023-09-03T00:40:58.589Z,100509.19
2023-09-03T00:43:26.544Z,100509.50
2023-09-03T00:45:54.843Z,100508.48
2023-09-03T00:48:25.109Z,100508.30
2023-09-03T00:50:53.904Z,100509.94
2023-09-03T00:53:22.585Z,100506.73
2023-09-03T00:55:51.124Z,100504.20
2023-09-03T00:58:20.275Z,100505.98
2023-09-03T01:00:50.790Z,100505.92
2023-09-03T01:03:22.779Z,100505.85
2023-09-03T01:05:52.309Z,100500.48
2023-09-03T01:08:21.615Z,100496.66
2023-09-03T01:11:07.588Z,100492.84
2023-09-03T01:13:55.512Z,100495.58
2023-09-03T01:16:28.168Z,100499.39
2023-09-03T01:19:00.772Z,100499.11
2023-09-03T01:21:36.424Z,100503.48
2023-09-03T01:24:13.755Z,100506.31
2023-09-03T01:26:44.973Z,100504.49
2023-09-03T01:29:14.643Z,100501.39
2023-09-03T01:31:44.431Z,100499.23
2023-09-03T01:34:13.599Z,100494.84
2023-09-03T01:36:41.762Z,100491.80
2023-09-03T01:39:10.142Z,100487.40
2023-09-03T01:41:39.510Z,100492.52
2023-09-03T01:44:07.388Z,100492.59
2023-09-03T01:46:49.528Z,100492.05
2023-09-03T01:49:36.614Z,100491.31
2023-09-03T01:52:11.049Z,100492.91
2023-09-03T01:54:40.714Z,100490.41
2023-09-03T01:57:11.591Z,100491.52
2023-09-03T01:59:42.713Z,100488.88
2023-09-03T02:02:12.280Z,100489.27
2023-09-03T02:04:40.762Z,100489.77
2023-09-03T02:07:09.121Z,100492.66
2023-09-03T02:09:37.087Z,100494.92
2023-09-03T02:12:07.193Z,100495.58
2023-09-03T02:14:35.070Z,100492.46
2023-09-03T02:17:03.024Z,100493.30
2023-09-03T02:19:30.954Z,100502.05
2023-09-03T02:21:58.820Z,100500.17
2023-09-03T02:24:28.038Z,100495.33
2023-09-03T02:26:56.171Z,100492.80
2023-09-03T02:29:26.521Z,100489.96
2023-09-03T02:31:54.645Z,100484.55
2023-09-03T02:34:22.911Z,100482.63
2023-09-03T02:36:51.179Z,100482.64
2023-09-03T02:39:19.878Z,100484.98
2023-09-03T02:41:48.230Z,100485.31
2023-09-03T02:44:16.521Z,100485.71
2023-09-03T02:46:44.816Z,100485.24
2023-09-03T02:49:13.024Z,100486.86
2023-09-03T02:51:42.620Z,100486.47
2023-09-03T02:54:10.753Z,100485.30
2023-09-03T02:56:39.071Z,100485.37
2023-09-03T02:59:07.122Z,100485.44
2023-09-03T03:01:35.726Z,100482.10
2023-09-03T03:04:04.893Z,100484.20
2023-09-03T03:06:33.070Z,100485.17
2023-09-03T03:09:01.072Z,100481.11
2023-09-03T03:11:29.933Z,100481.77
2023-09-03T03:13:59.770Z,100479.75
2023-09-03T03:16:31.763Z,100483.36
2023-09-03T03:19:02.904Z,100484.17
2023-09-03T03:21:32.057Z,100487.23
2023-09-03T03:24:02.537Z,100490.69
2023-09-03T03:26:35.593Z,100497.49
2023-09-03T03:29:05.441Z,100493.58
2023-09-03T03:31:37.131Z,100492.22
2023-09-03T03:34:05.791Z,100487.11
2023-09-03T03:36:34.715Z,100491.36
2023-09-03T03:39:03.163Z,100495.83
2023-09-03T03:41:31.366Z,100496.48
2023-09-03T03:44:01.297Z,100496.58
2023-09-03T03:46:30.252Z,100500.18
2023-09-03T03:49:00.978Z,100500.11
2023-09-03T03:51:31.649Z,100499.48
2023-09-03T03:54:04.232Z,100498.59
2023-09-03T03:56:32.652Z,100496.20
2023-09-03T03:59:03.315Z,100496.69
2023-09-03T04:01:31.563Z,100497.09
2023-09-03T04:03:59.764Z,100500.52
2023-09-03T04:06:29.259Z,100502.34
2023-09-03T04:08:57.401Z,100503.84
2023-09-03T04:11:25.890Z,100504.54
2023-09-03T04:13:54.331Z,100504.52
2023-09-03T04:16:23.639Z,100502.36
2023-09-03T04:18:54.116Z,100504.92
2023-09-03T04:21:22.200Z,100501.52
2023-09-03T04:23:57.662Z,100501.77
2023-09-03T04:26:25.822Z,100504.30
2023-09-03T04:28:55.955Z,100501.71
2023-09-03T04:31:24.789Z,100501.63
2023-09-03T04:33:59.543Z,100503.91
2023-09-03T04:36:39.693Z,100503.00
2023-09-03T04:39:13.098Z,100499.65
2023-09-03T04:41:55.225Z,100495.71
2023-09-03T04:44:27.566Z,100494.24
2023-09-03T04:47:00.977Z,100498.17
2023-09-03T04:49:45.396Z,100503.83
2023-09-03T04:56:00.393Z,100509.20
2023-09-03T04:58:32.630Z,100512.02
2023-09-03T05:01:06.683Z,100513.50
2023-09-03T05:03:38.295Z,100511.27
2023-09-03T05:06:17.156Z,100512.70
2023-09-03T05:08:51.565Z,100511.45
2023-09-03T05:11:28.166Z,100512.58
2023-09-03T05:14:00.796Z,100511.53
2023-09-03T05:16:32.303Z,100508.61
2023-09-03T05:19:05.944Z,100504.41
2023-09-03T05:21:37.982Z,100499.05
2023-09-03T05:24:12.167Z,100493.83
2023-09-03T05:26:40.711Z,100497.27
2023-09-03T05:29:11.356Z,100491.67
2023-09-03T05:31:40.132Z,100486.60
2023-09-03T05:34:15.069Z,100485.54
2023-09-03T05:36:53.146Z,100484.80
2023-09-03T05:39:37.370Z,100484.67
2023-09-03T05:42:09.472Z,100480.99
2023-09-03T05:44:40.727Z,100478.83
2023-09-03T05:47:09.416Z,100480.34
2023-09-03T05:49:56.787Z,100480.59
2023-09-03T05:52:27.825Z,100478.90
2023-09-03T05:55:20.682Z,100484.39
2023-09-03T05:58:10.523Z,100489.45
2023-09-03T06:00:57.328Z,100491.17
2023-09-03T06:03:28.867Z,100489.17
2023-09-03T06:05:57.537Z,100489.88
2023-09-03T06:08:29.310Z,100486.39
2023-09-03T06:10:57.827Z,100490.02
2023-09-03T06:13:27.100Z,100490.63
2023-09-03T06:15:55.580Z,100487.77
2023-09-03T06:18:24.866Z,100484.35
2023-09-03T06:20:53.762Z,100483.00
2023-09-03T06:23:24.530Z,100484.36
2023-09-03T06:25:52.852Z,100482.48
2023-09-03T06:28:21.164Z,100487.35
2023-09-03T06:30:53.695Z,100488.83
2023-09-03T06:33:21.880Z,100488.25
2023-09-03T06:35:52.771Z,100490.65
2023-09-03T06:38:20.970Z,100486.35
2023-09-03T06:40:49.925Z,100486.54
2023-09-03T06:43:20.553Z,100483.73
2023-09-03T06:45:54.877Z,100488.04
2023-09-03T06:48:24.136Z,100492.19
2023-09-03T06:50:52.658Z,100492.98
2023-09-03T06:53:20.717Z,100492.30
2023-09-03T06:55:50.915Z,100493.83
2023-09-03T06:58:19.450Z,100501.55
2023-09-03T07:00:50.669Z,100509.14
2023-09-03T07:03:19.957Z,100513.55
2023-09-03T07:05:55.042Z,100523.40
2023-09-03T07:08:23.477Z,100549.13
2023-09-03T07:10:51.673Z,100578.81
2023-09-03T07:13:20.099Z,100588.80
2023-09-03T07:15:54.594Z,100580.67
2023-09-03T07:18:23.142Z,100580.14
2023-09-03T07:21:03.223Z,100589.68
2023-09-03T07:23:44.188Z,100599.81
2023-09-03T07:26:15.885Z,100603.88
2023-09-03T07:28:46.566Z,100606.30
2023-09-03T07:31:22.788Z,100615.58
2023-09-03T07:33:50.813Z,100617.27
2023-09-03T07:36:18.763Z,100627.66
2023-09-03T07:38:46.687Z,100637.90
2023-09-03T07:41:15.255Z,100631.59
2023-09-03T07:43:44.523Z,100628.27
2023-09-03T07:46:14.725Z,100624.13
2023-09-03T07:48:44.078Z,100622.64
2023-09-03T07:51:19.201Z,100611.51
2023-09-03T07:53:50.833Z,100608.55
2023-09-03T07:56:21.743Z,100605.58
2023-09-03T07:58:53.123Z,100610.08
2023-09-03T08:01:26.537Z,100608.10
2023-09-03T08:03:54.924Z,100595.98
2023-09-03T08:06:33.752Z,100582.54
2023-09-03T08:09:07.356Z,100578.86
2023-09-03T08:11:37.092Z,100574.23
2023-09-03T08:14:06.270Z,100587.30
2023-09-03T08:16:34.696Z,100589.36
2023-09-03T08:19:02.683Z,100583.67
2023-09-03T08:21:30.702Z,100574.59
2023-09-03T08:24:01.697Z,100573.56
2023-09-03T08:26:29.846Z,100570.86
2023-09-03T08:29:16.455Z,100572.27
2023-09-03T08:31:48.420Z,100569.89
2023-09-03T08:34:29.374Z,100570.23
2023-09-03T08:37:25.178Z,100574.84
2023-09-03T08:39:58.035Z,100570.94
2023-09-03T08:42:32.366Z,100565.27
2023-09-03T08:45:04.653Z,100553.31
2023-09-03T08:47:36.182Z,100551.84
2023-09-03T08:50:06.151Z,100556.35
2023-09-03T08:52:34.292Z,100557.92
2023-09-03T08:55:04.714Z,100565.29
2023-09-03T08:57:36.115Z,100581.46
2023-09-03T09:00:07.962Z,100605.70
2023-09-03T09:02:36.315Z,100634.12
2023-09-03T09:05:06.318Z,100642.40
2023-09-03T09:07:36.516Z,100651.71
2023-09-03T09:10:09.699Z,100670.84
2023-09-03T09:12:43.107Z,100678.72
2023-09-03T09:15:11.381Z,100674.61
2023-09-03T09:17:41.805Z,100680.68
2023-09-03T09:20:18.240Z,100685.44
2023-09-03T09:22:48.030Z,100687.27
2023-09-03T09:25:35.565Z,100700.52
2023-09-03T09:28:15.508Z,100705.69
2023-09-03T09:30:57.308Z,100708.01
2023-09-03T09:33:27.480Z,100701.60
2023-09-03T09:36:09.889Z,100674.30
2023-09-03T09:38:39.813Z,100622.75
2023-09-03T09:41:23.871Z,100603.86
2023-09-03T09:43:54.301Z,100587.55
2023-09-03T09:46:28.896Z,100587.91
2023-09-03T09:49:01.295Z,100573.70
2023-09-03T09:51:29.960Z,100575.18
2023-09-03T09:53:59.262Z,100575.27
2023-09-03T09:56:30.808Z,100573.91
2023-09-03T09:59:01.004Z,100583.92
2023-09-03T10:01:42.218Z,100590.31
2023-09-03T10:04:10.206Z,100590.23
2023-09-03T10:06:40.685Z,100577.98
2023-09-03T10:09:11.653Z,100577.91
2023-09-03T10:11:40.136Z,100587.19
2023-09-03T10:14:08.073Z,100592.95
2023-09-03T10:16:36.249Z,100582.40
2023-09-03T10:19:06.394Z,100572.48
2023-09-03T10:21:53.148Z,100574.23
2023-09-03T10:24:24.668Z,100588.95
2023-09-03T10:27:06.203Z,100606.55
2023-09-03T10:29:36.396Z,100603.80
2023-09-03T10:32:07.499Z,100600.34
2023-09-03T10:34:38.914Z,100589.58
2023-09-03T10:37:07.812Z,100586.58
2023-09-03T10:39:42.058Z,100583.16
2023-09-03T10:42:18.977Z,100573.49
2023-09-03T10:44:57.414Z,100571.73
2023-09-03T10:47:25.636Z,100563.91
2023-09-03T10:49:56.584Z,100556.14
2023-09-03T10:52:27.258Z,100552.02
2023-09-03T10:55:14.014Z,100550.05
2023-09-03T10:57:42.618Z,100540.23
2023-09-03T11:00:11.360Z,100539.77
2023-09-03T11:02:39.490Z,100534.60
2023-09-03T11:05:10.537Z,100536.23
2023-09-03T11:07:39.352Z,100531.43
2023-09-03T11:10:28.690Z,100529.14
2023-09-03T11:12:57.104Z,100524.84
2023-09-03T11:15:25.250Z,100529.27
2023-09-03T11:17:56.834Z,100533.61
2023-09-03T11:20:50.218Z,100544.58
2023-09-03T11:23:21.710Z,100550.85
2023-09-03T11:25:53.537Z,100542.86
2023-09-03T11:28:21.274Z,100540.73
2023-09-03T11:30:59.309Z,100536.38
2023-09-03T11:33:27.987Z,100531.24
2023-09-03T11:35:58.656Z,100522.09
2023-09-03T11:38:27.463Z,100516.98
2023-09-03T11:41:00.221Z,100512.45
2023-09-03T11:43:32.545Z,100510.58
2023-09-03T11:46:05.330Z,100510.18
2023-09-03T11:48:36.428Z,100513.20
2023-09-03T11:51:05.013Z,100509.92
2023-09-03T11:53:42.663Z,100513.15
2023-09-03T11:56:16.211Z,100509.16
2023-09-03T11:58:45.489Z,100507.23
2023-09-03T12:01:15.031Z,100501.68
2023-09-03T12:03:43.324Z,100498.88
2023-09-03T12:06:11.527Z,100496.39
2023-09-03T12:08:39.391Z,100495.08
2023-09-03T12:11:07.512Z,100494.46
2023-09-03T12:13:36.826Z,100494.95
2023-09-03T12:16:17.062Z,100488.42
2023-09-03T12:18:58.943Z,100479.77
2023-09-03T12:21:34.020Z,100479.48
2023-09-03T12:24:04.811Z,100470.40
2023-09-03T12:26:34.055Z,100467.52
2023-09-03T12:29:04.685Z,100461.64
2023-09-03T12:31:47.474Z,100457.48
2023-09-03T12:34:16.809Z,100456.48
2023-09-03T12:37:00.815Z,100454.73
2023-09-03T12:39:38.146Z,100456.69
2023-09-03T12:42:21.158Z,100457.21
2023-09-03T12:44:57.802Z,100453.75
2023-09-03T12:47:28.891Z,100452.62
2023-09-03T12:49:57.895Z,100455.69
2023-09-03T12:52:29.074Z,100455.41
2023-09-03T12:54:56.939Z,100458.91
2023-09-03T12:57:25.779Z,100464.81
2023-09-03T12:59:54.019Z,100472.59
2023-09-03T13:02:23.329Z,100476.59
2023-09-03T13:04:51.365Z,100479.70
2023-09-03T13:07:19.281Z,100480.66
2023-09-03T13:09:47.214Z,100479.17
2023-09-03T13:12:15.381Z,100481.73
2023-09-03T13:14:43.186Z,100488.30
2023-09-03T13:17:13.687Z,100490.81
2023-09-03T13:19:43.863Z,100485.70
2023-09-03T13:22:14.183Z,100486.39
2023-09-03T13:24:42.500Z,100485.11
2023-09-03T13:27:13.923Z,100484.91
2023-09-03T13:29:42.045Z,100485.39
2023-09-03T13:32:10.113Z,100481.70
2023-09-03T13:34:39.464Z,100485.97
2023-09-03T13:37:20.820Z,100492.80
2023-09-03T13:39:52.674Z,100496.88
2023-09-03T13:42:25.037Z,100503.13
2023-09-03T13:44:56.609Z,100503.47
2023-09-03T13:47:51.106Z,100505.95
2023-09-03T13:53:09.156Z,100500.48
2023-09-03T13:55:37.330Z,100498.42
2023-09-03T13:58:05.799Z,100499.15
2023-09-03T14:00:35.470Z,100499.91
2023-09-03T14:03:04.216Z,100492.71
2023-09-03T14:05:32.600Z,100488.29
2023-09-03T14:08:00.901Z,100479.21
2023-09-03T14:10:29.782Z,100472.41
2023-09-03T14:12:58.227Z,100470.66
2023-09-03T14:15:33.580Z,100466.54
2023-09-03T14:18:01.628Z,100464.01
2023-09-03T14:20:29.883Z,100459.41
2023-09-03T14:23:00.522Z,100451.54
2023-09-03T14:25:28.630Z,100441.66
2023-09-03T14:27:58.382Z,100431.77
2023-09-03T14:30:37.850Z,100428.79
2023-09-03T14:33:06.444Z,100425.45
2023-09-03T14:35:37.334Z,100424.79
2023-09-03T14:38:05.244Z,100428.78
2023-09-03T14:40:39.132Z,100421.63
2023-09-03T14:43:12.713Z,100412.53
2023-09-03T14:45:40.813Z,100411.40
2023-09-03T14:48:08.686Z,100409.52
2023-09-03T14:50:42.928Z,100404.39
2023-09-03T14:53:10.960Z,100398.50
2023-09-03T14:56:00.653Z,100391.93
2023-09-03T14:58:30.464Z,100387.13
2023-09-03T15:01:11.493Z,100382.02
2023-09-03T15:03:39.820Z,100369.50
2023-09-03T15:06:07.943Z,100368.17
2023-09-03T15:08:37.212Z,100382.73
2023-09-03T15:11:11.538Z,100401.33
2023-09-03T15:13:49.601Z,100422.11
2023-09-03T15:16:21.295Z,100466.75
2023-09-03T15:19:06.388Z,100491.15
2023-09-03T15:25:05.965Z,100525.69
2023-09-03T15:27:51.298Z,100523.16
2023-09-03T15:30:22.542Z,100510.81
2023-09-03T15:33:16.273Z,100490.65
2023-09-03T15:35:51.550Z,100484.65
2023-09-03T15:38:22.187Z,100478.91
2023-09-03T15:40:52.894Z,100470.55
2023-09-03T15:43:22.801Z,100479.40
2023-09-03T15:45:54.331Z,100473.80
2023-09-03T15:48:25.756Z,100476.67
2023-09-03T15:50:59.778Z,100474.52
2023-09-03T15:53:32.624Z,100479.86
2023-09-03T15:56:00.672Z,100485.30
2023-09-03T15:58:32.028Z,100485.85
2023-09-03T16:01:04.386Z,100482.10
2023-09-03T16:03:40.269Z,100477.95
2023-09-03T16:06:08.890Z,100479.38
2023-09-03T16:08:36.902Z,100478.42
2023-09-03T16:11:05.824Z,100478.52
2023-09-03T16:13:37.866Z,100486.98
2023-09-03T16:16:07.898Z,100476.20
2023-09-03T16:18:37.717Z,100448.77
2023-09-03T16:21:18.514Z,100430.16
2023-09-03T16:23:49.824Z,100414.20
2023-09-03T16:26:35.366Z,100398.40
2023-09-03T16:29:03.299Z,100400.64
2023-09-03T16:31:31.967Z,100415.16
2023-09-03T16:34:04.133Z,100414.95
2023-09-03T16:36:42.788Z,100399.31
2023-09-03T16:39:13.445Z,100384.06
2023-09-03T16:41:43.125Z,100382.48
2023-09-03T16:44:17.909Z,100377.53
2023-09-03T16:46:46.505Z,100377.14
2023-09-03T16:49:14.654Z,100384.56
2023-09-03T16:51:43.718Z,100397.23
2023-09-03T16:54:17.447Z,100416.22
2023-09-03T16:56:49.944Z,100424.36
2023-09-03T16:59:18.576Z,100419.27
2023-09-03T17:02:37.439Z,100421.41
2023-09-03T17:05:39.564Z,100432.81
2023-09-03T17:08:36.207Z,100432.73
2023-09-03T17:11:05.655Z,100432.64
2023-09-03T17:13:36.702Z,100433.75
2023-09-03T17:17:19.265Z,100443.25
2023-09-03T17:21:33.833Z,100450.36
2023-09-03T17:28:01.206Z,100467.75
2023-09-03T17:30:53.942Z,100474.99
2023-09-03T17:40:52.560Z,100485.61
2023-09-03T17:45:24.510Z,100486.71
2023-09-03T17:55:13.471Z,100485.20
2023-09-03T18:01:32.276Z,100499.73
2023-09-03T18:08:15.008Z,100496.69
2023-09-03T18:15:32.983Z,100492.78
2023-09-03T18:27:20.563Z,100471.49
2023-09-03T18:41:40.969Z,100476.87
2023-09-03T18:44:32.122Z,100477.42
2023-09-03T18:47:10.945Z,100468.30
2023-09-03T18:53:37.980Z,100486.14
2023-09-03T18:56:55.104Z,100483.64
2023-09-03T19:12:01.246Z,100489.91
2023-09-03T19:15:16.304Z,100492.46
2023-09-03T19:17:55.571Z,100502.89
2023-09-03T19:23:34.536Z,100504.46
2023-09-03T19:26:05.168Z,100507.09
2023-09-03T19:28:34.105Z,100513.45
2023-09-03T19:31:05.746Z,100506.99
2023-09-03T19:33:34.903Z,100502.12
2023-09-03T19:36:04.362Z,100504.65
2023-09-03T19:38:42.518Z,100502.02
2023-09-03T19:41:10.666Z,100499.06
2023-09-03T19:43:40.870Z,100499.85
2023-09-03T19:46:08.823Z,100498.08
2023-09-03T19:48:41.274Z,100494.48
2023-09-03T19:51:12.718Z,100499.48
2023-09-03T19:53:45.454Z,100500.09
2023-09-03T19:56:22.274Z,100502.23
2023-09-03T19:59:03.798Z,100501.52
2023-09-03T20:05:20.191Z,100504.30
2023-09-03T20:08:10.273Z,100505.44
2023-09-03T20:10:47.299Z,100507.70
2023-09-03T20:13:50.405Z,100512.25
2023-09-03T20:16:43.000Z,100515.23
2023-09-03T20:19:21.802Z,100512.56
2023-09-03T20:25:10.696Z,100505.44
2023-09-03T20:27:42.324Z,100507.17
2023-09-03T20:30:16.325Z,100511.07
2023-09-03T20:32:47.585Z,100509.31
2023-09-03T20:35:20.813Z,100510.19
2023-09-03T20:37:59.693Z,100510.09
2023-09-03T20:40:37.919Z,100512.08
2023-09-03T20:43:11.085Z,100511.85
2023-09-03T20:45:46.301Z,100508.50
2023-09-03T20:48:14.616Z,100508.07
2023-09-03T20:50:48.952Z,100507.25
2023-09-03T20:53:27.926Z,100502.05
2023-09-03T20:56:01.157Z,100499.27
2023-09-03T20:58:51.490Z,100494.48
2023-09-03T21:01:25.570Z,100489.94
2023-09-03T21:07:59.736Z,100489.71
2023-09-03T21:10:58.321Z,100489.95
2023-09-03T21:13:36.930Z,100489.38
2023-09-03T21:16:08.569Z,100484.84
2023-09-03T21:18:39.387Z,100486.27
2023-09-03T21:21:20.151Z,100490.08
2023-09-03T21:23:49.793Z,100488.65
2023-09-03T21:26:20.359Z,100486.09
2023-09-03T21:28:53.088Z,100482.66
2023-09-03T21:31:23.996Z,100483.44
2023-09-03T21:34:02.415Z,100480.79
2023-09-03T21:36:45.640Z,100482.14
2023-09-03T21:39:14.121Z,100483.17
2023-09-03T21:41:44.776Z,100480.48
2023-09-03T21:44:48.038Z,100481.60
2023-09-03T21:47:41.248Z,100485.22
2023-09-03T21:50:11.261Z,100489.45
2023-09-03T21:52:44.657Z,100487.08
2023-09-03T21:55:15.757Z,100488.52
2023-09-03T21:57:44.121Z,100488.61
2023-09-03T22:00:13.406Z,100493.24
2023-09-03T22:02:43.737Z,100490.73
2023-09-03T22:05:14.675Z,100490.27
2023-09-03T22:07:45.185Z,100490.03
2023-09-03T22:10:22.985Z,100491.31
2023-09-03T22:13:04.955Z,100488.27
2023-09-03T22:15:33.117Z,100489.14
2023-09-03T22:18:05.511Z,100490.06
2023-09-03T22:20:42.172Z,100490.67
2023-09-03T22:23:12.407Z,100492.48
2023-09-03T22:25:56.630Z,100488.09
2023-09-03T22:28:28.137Z,100481.45
2023-09-03T22:30:56.472Z,100483.17
2023-09-03T22:33:24.741Z,100479.59
2023-09-03T22:35:54.331Z,100474.71
2023-09-03T22:38:33.652Z,100476.70
2023-09-03T22:41:04.915Z,100480.66
2023-09-03T22:43:40.896Z,100482.06
2023-09-03T22:46:09.482Z,100477.65
2023-09-03T22:48:37.510Z,100474.21
2023-09-03T22:51:07.090Z,100475.55
2023-09-03T22:56:45.960Z,100479.30
2023-09-03T22:59:13.972Z,100478.81
2023-09-03T23:01:42.226Z,100476.49
2023-09-03T23:04:11.214Z,100474.17
2023-09-03T23:06:39.538Z,100472.08
2023-09-03T23:09:07.725Z,100466.08
2023-09-03T23:11:36.569Z,100464.32
2023-09-03T23:14:05.015Z,100463.75
2023-09-03T23:16:40.363Z,100461.98
2023-09-03T23:19:11.555Z,100461.98
2023-09-03T23:24:39.033Z,100465.77
2023-09-03T23:27:07.210Z,100465.52
2023-09-03T23:29:35.498Z,100463.48
2023-09-03T23:32:03.593Z,100462.90
2023-09-03T23:34:32.738Z,100464.95
2023-09-03T23:37:00.807Z,100464.02
2023-09-03T23:39:29.027Z,100458.21
2023-09-03T23:41:59.882Z,100459.48
2023-09-03T23:44:28.128Z,100461.30
2023-09-03T23:47:06.828Z,100462.14
2023-09-03T23:49:44.377Z,100461.72
2023-09-03T23:52:12.522Z,100462.52
2023-09-03T23:54:40.720Z,100467.42
2023-09-03T23:57:08.953Z,100467.80
2023-09-03T23:59:36.915Z,100469.79
